Terminal Aerodrome Forecast
Issued by NWS

Current Version | Previous Version | Text Only | Print | Product List | Glossary On
Versions: 1 2 3 4 5 6 7 8 9 10 11 12 13 14 15 16 17 18 19 20
828
FTUS43 KPAH 191505 AAA
TAFCGI
TAF AMD
KCGI 191505Z 1915/2012 33011G20KT P6SM FEW020
     FM192300 00000KT P6SM SKC=

USA.gov is the U.S. government's official web portal to all federal, state and local government web resources and services.